Airfield :
LOGIN :

Register | Disclaimer

   EN    FR    IT 

 










Legend :    VFR   Marginal VFR   IFR   Intensive IFR   Very Intensive IFR
Visi :
Ceiling :
>= 8 km
>= 3000ft
5 to 8 km
1000 to 3000 ft
1500m to 5 km
500 to 1000 ft
800 to 1500m
200 to 500 ft
< 800m
< 200 ft
Symbols :   Thunderstorms  Fog  Heavy snow  Heavy precipitations  Wind > 20 kt
SIGMETs :     Misc.  Thunderstorms  Icing  Turbulence  Mountain Waves  Volcanic Ashes







- Airport Elevation : 779 ft
- IATA code : CMF
- Download approach charts


LFLB - Chambery / Aix-Les-Bains

CURRENT METAR :
  • 181200Z AUTO 36004KT 330V030 9999 FEW010 OVC030 06/04 Q1024 NOSIG

EXPIRED METARs :
  • 181130Z AUTO VRB01KT 9000 OVC031 06/03 Q1024 NOSIG
  • 181100Z AUTO VRB01KT 9000 OVC031 06/02 Q1024 TEMPO 3000 BR BKN011
  • 181030Z AUTO 00000KT 9000 OVC031 06/02 Q1025 TEMPO 3000 BR BKN011
  • 181000Z AUTO 16002KT 9000 OVC032 06/02 Q1025 TEMPO 3000 BR BKN011
  • 180930Z AUTO VRB01KT 9000 FEW012 OVC032 05/02 Q1025 TEMPO 3000 BR BKN011

TAF TAF LFLB
Valid from the 18 at 12:00 until the 19 at 12:00 UTC


181100Z 1812/1912 36008KT 9000 BKN030
BECMG 1815/1817 VRB03KT
PROB30
TEMPO 1900/1906 3000 BR
PROB30
TEMPO 1909/1912 -RA
No reported NOTAMs for that airfield.



MET'MAP, your aeronautical weather chart ! - Copyright ORBIFLY December 2007 - Disclaimer

ORBIFLY MET'MAP TEAM :

Programming & Development : Alexandra Zaïnal
Concept & Development : Baudouin d'Aumeries
Co-Development & Prog : Marc-Olivier Méhu
Technical & hardware support : Manuel Goepfert

Contact : metmap@orbifly.com




SOURCES & CREDITS :

   NOAA